Home Team Position History
You can show your support by sponsoring this page for $30.  
Your ad/message will appear in this space for one year.  
Thank you for your support!       Team History Index Los Angeles Angels
         
          Second Base
             
Pos St All- Other 2nd Base Fielding Statistics Pos St Batting Statistics as Second Baseman Win Shares Pos St
Year Rank Rank Name HOF MVP Star Rookie GG SS Team Stdg Bats Age Pos Games PO Assts Err DP F Pct. Year Rank Rank Name At Bats Hits 2B 3B HR Runs RBI BB IBB SO HP SH SF SB CS GDP BA OBA SA OPS RC B WS F WS T WS BWS/G FWS/G TWS/G Adj WSQ Year Rank Rank Name
1961 10 9 Ken Aspromonte   LA 8 R 29   62 156 196 11 55 .970   1961 10 9 Ken Aspromonte 234 52 10 0 2 29 14 32 1 19 2 3 0 0 0 7 .222 .321 .291 .612 24   1.2 2.9 4.1 .019 .047 .066 3.47 1961 10 9 Ken Aspromonte
1961 14 Rocky Bridges   LA 8 R 33 SS   58 113 139 3 23 .988   1961 14 Rocky Bridges 165 41 4 1 2 15 9 14 0 30 1 4 0 1 0 3 .248 .311 .321 .632 18   0.9 1.9 2.8 .016 .033 .048 2.05 1961 14 Rocky Bridges
1961 13 Billy Moran   LA 8 R 27   51 108 116 8 31 .966   1961 13 Billy Moran 163 41 7 1 2 18 22 16 1 15 1 5 1 0 0 5 .252 .320 .344 .664 19   1.4 1.7 3.1 .027 .033 .061 2.54 1961 13 Billy Moran
       
1962 1 1 Billy Moran 13 A(2)   LA 3 R 28   160 422 477 13 103 .986   1962 1 1 Billy Moran 659 186 25 3 17 90 74 39 2 80 4 14 5 5 1 8 .282 .324 .407 .731 91   16.1 8.2 24.3 .101 .051 .152 28.57 1962 1 1 Billy Moran
       
1963 3 3 Billy Moran   LA 9 R 29   151 352 455 22 98 .973   1963 3 3 Billy Moran 595 163 29 5 7 66 64 31 2 57 3 10 7 1 1 14 .274 .310 .375 .685 67   11.5 4.9 16.4 .076 .032 .109 16.56 1963 3 3 Billy Moran
       
1964 8 6 Bobby Knoop R   LA 5 R 25   161 357 522 20 123 .978   1964 8 6 Bobby Knoop 485 105 8 1 7 42 38 46 6 109 5 7 3 3 2 17 .216 .289 .280 .569 35   2.2 8.8 11.0 .014 .055 .068 9.39 1964 8 6 Bobby Knoop
       
1965 3 3 Bobby Knoop 24   CAL 7 R 26   142 331 402 22 89 .971   1965 3 3 Bobby Knoop 465 125 24 4 7 47 43 31 5 101 0 6 2 3 2 6 .269 .313 .383 .696 53   10.1 5.8 15.9 .071 .041 .112 16.38 1965 3 3 Bobby Knoop
1965 19 Julio Gotay   CAL 7 R 26   23 27 47 3 8 .961   1965 19 Julio Gotay 45 9 2 0 0 2 2 4 2 5 0 1 0 0 0 0 .200 .265 .244 .509 3   0.3 0.5 0.8 .013 .022 .035 0.46 1965 19 Julio Gotay
       
1966 1 1 Bobby Knoop 18 A G   CAL 6 R 27   161 381 488 17 135 .981   1966 1 1 Bobby Knoop 590 137 18 11 17 54 72 43 8 144 1 9 7 1 5 14 .232 .282 .386 .668 62   9.9 8.2 18.1 .061 .051 .112 20.94 1966 1 1 Bobby Knoop
       
1967 4 4 Bobby Knoop G   CAL 5 R 28   159 376 392 11 91 .986   1967 4 4 Bobby Knoop 510 124 18 5 9 50 37 44 13 136 1 6 2 2 2 10 .243 .303 .351 .654 54   11.1 6.8 17.9 .070 .043 .113 17.74 1967 4 4 Bobby Knoop
       
1968 3 3 Bobby Knoop G   CAL T8 R 29   151 350 425 15 94 .981   1968 3 3 Bobby Knoop 493 122 20 4 3 47 37 35 6 128 3 2 2 3 2 13 .247 .300 .323 .623 45   8.9 6.3 15.2 .059 .042 .101 14.41 1968 3 3 Bobby Knoop
       
1969 8 8 Sandy Alomar   CAL 3W B 25   134 294 354 21 94 .969   1969 8 8 Sandy Alomar 559 140 10 2 1 60 30 36 2 48 0 3 0 17 3 5 .250 .296 .281 .577 50   6.0 4.5 10.5 .045 .034 .078 8.26 1969 8 Sandy Alomar
1969 10 Bobby Knoop   CAL 3W R 30   27 64 66 3 14 .977   1969 10 Bobby Knoop 71 14 1 0 1 5 6 13 1 17 0 0 1 1 3 2 .197 .318 .254 .572 3   0.2 1.1 1.3 .007 .041 .048 0.80 1969 10 Bobby Knoop
       
1970 5 4 Sandy Alomar a   CAL 3W B 26   153 375 460 18 119 .979   1970 5 4 Sandy Alomar 639 161 18 2 2 76 36 44 2 60 1 11 2 33 11 8 .252 .300 .296 .596 63   8.7 7.4 16.1 .057 .048 .105 16.37 1970 5 4 Sandy Alomar
       
1971 4 4 Sandy Alomar   CAL 4W B 27   137 350 432 9 100 .989   1971 4 4 Sandy Alomar 571 148 19 3 1 62 34 36 4 49 0 6 2 32 10 6 .259 .302 .308 .610 58   10.0 7.1 17.1 .073 .052 .125 17.89 1971 4 4 Sandy Alomar
1971 22 Billy Parker R   CAL 4W R 24   20 39 52 4 13 .958   1971 22 Billy Parker 70 16 0 1 1 4 6 2 0 20 0 0 0 1 1 2 .229 .250 .300 .550 4   - 0.8 0.8 .000 .040 .040 0.48 1971 22 Billy Parker
       
1972 5 5 Sandy Alomar   CAL 5W B 28   154 350 388 17 92 .977   1972 5 5 Sandy Alomar 598 143 20 3 1 64 24 47 5 55 0 6 3 20 12 8 .239 .293 .288 .581 48   9.2 5.6 14.8 .060 .036 .096 14.18 1972 5 5 Sandy Alomar
       
1973 10 10 Sandy Alomar   CAL 4W B 29   110 243 267 11 70 .979   1973 10 10 Sandy Alomar 364 91 5 1 0 38 23 30 1 37 0 9 2 20 9 1 .250 .306 .269 .575 36   3.0 4.1 7.1 .027 .037 .065 5.39 1973 10 10 Sandy Alomar
1973 20 Billy Parker R   CAL 4W R 26   32 81 58 6 15 .959   1973 20 Billy Parker 97 23 2 1 0 9 7 7 1 21 1 1 1 0 1 2 .237 .292 .278 .570 7   0.1 0.9 1.0 .003 .028 .031 0.53 1973 20 Billy Parker
1973 22 Winston Llenas   CAL 4W R 29   20 27 16 0 2 1.000   1973 22 Winston Llenas 25 5 1 0 0 1 2 1 0 2 0 1 0 0 0 2 .200 .231 .240 .471 1   0.1 0.5 0.6 .005 .025 .030 0.31 1973 22 Winston Llenas
       
1974 5 5 Denny Doyle   CAL 6W L 30   146 311 404 12 99 .983   1974 5 5 Denny Doyle 509 131 19 2 1 47 34 25 2 49 1 9 2 6 7 7 .257 .292 .308 .600 45   5.3 5.7 11.0 .036 .039 .075 8.78 1974 5 5 Denny Doyle
       
1975 4 4 Jerry Remy R   CAL 6W L 22   147 336 427 14 111 .982   1975 4 4 Jerry Remy 569 147 17 5 1 82 46 45 1 55 0 12 3 34 21 15 .258 .311 .311 .622 55   6.6 8.2 14.8 .045 .056 .101 13.40 1975 4 4 Jerry Remy
       
1976 4 4 Jerry Remy   CAL T4W L 23   133 279 406 16 77 .977   1976 4 4 Jerry Remy 483 126 13 3 0 62 27 37 1 41 0 13 4 34 15 5 .261 .311 .300 .611 53   10.0 6.9 16.9 .075 .052 .127 18.43 1976 4 4 Jerry Remy
1976 13 Mario Guerrero   CAL T4W R 26 SS   41 80 97 5 19 .973   1976 13 Mario Guerrero 144 43 5 0 0 14 13 3 0 10 0 2 4 0 0 2 .299 .305 .333 .638 16   3.1 1.0 4.1 .076 .024 .100 3.97 1976 13 Mario Guerrero
       
1977 6 6 Jerry Remy   CAL 5W L 24   152 307 420 19 90 .975   1977 6 6 Jerry Remy 570 144 19 10 4 74 44 59 2 59 2 19 4 40 17 9 .253 .323 .342 .665 67   9.0 5.3 14.3 .059 .035 .094 14.01 1977 6 6 Jerry Remy
       
1978 2 2 Bobby Grich   CAL T2W R 29   144 325 419 13 77 .983   1978 2 2 Bobby Grich 487 122 16 2 6 68 42 74 1 83 7 19 3 4 3 6 .251 .356 .329 .685 67   13.3 7.1 20.4 .092 .049 .142 23.49 1978 2 2 Bobby Grich
1978 21 Dave Chalk   CAL T2W R 27 3B,SS   29 39 69 3 12 .973   1978 21 Dave Chalk 82 22 2 0 0 4 3 2 0 4 0 0 0 0 1 4 .268 .286 .293 .579 6   0.7 0.8 1.5 .024 .028 .052 1.05 1978 21 Dave Chalk
       
Pos St All- Other 2nd Base Fielding Statistics Pos St Batting Statistics as Second Baseman Win Shares Pos St
Year Rank Rank Name HOF MVP Star Rookie GG SS Team Stdg Bats Age Pos Games PO Assts Err DP F Pct. Year Rank Rank Name At Bats Hits 2B 3B HR Runs RBI BB IBB SO HP SH SF SB CS GDP BA OBA SA OPS RC B WS F WS T WS BWS/G FWS/G TWS/G Adj WSQ Year Rank Rank Name
1979 1 1 Bobby Grich 8 a   CAL 1W R 30   153 340 438 13 111 .984   1979 1 1 Bobby Grich 533 157 30 5 30 78 101 59 10 83 2 12 2 1 0 14 .295 .366 .538 .904 103   21.9 6.5 28.4 .143 .042 .186 34.82 1979 1 1 Bobby Grich
1979 22 Dickie Thon R   CAL 1W R 21   24 34 38 6 12 .923   1979 22 Dickie Thon 46 14 2 0 0 5 4 4 0 9 0 1 0 0 0 2 .304 .360 .348 .708 6   1.4 0.4 1.8 .058 .017 .075 1.40 1979 22 Dickie Thon
       
1980 3 3 Bobby Grich a CAL 6W R 31   146 326 463 9 101 .989   1980 3 3 Bobby Grich 481 130 21 2 14 59 60 83 2 105 4 5 5 3 6 16 .270 .379 .410 .789 77   13.8 5.4 19.2 .095 .037 .132 20.50 1980 3 3 Bobby Grich
1980 24 Dickie Thon R CAL 6W R 22 SS   21 39 46 1 15 .988   1980 24 Dickie Thon 77 16 3 1 0 11 3 6 0 7 0 3 1 2 0 2 .208 .262 .273 .535 7   0.5 0.5 1.0 .024 .024 .048 0.64 1980 24 Dickie Thon
     
1981 1 1 Bobby Grich 14 S CAL 5W R 32   100 230 349 10 85 .983   1981 1 1 Bobby Grich 352 107 14 2 22 56 61 40 4 71 4 5 3 2 4 5 .304 .378 .543 .921 72   16.7 4.2 20.9 .167 .042 .209 27.67 1981 1 1 Bobby Grich
     
1982 1 1 Bobby Grich A CAL 1W R 33   142 338 450 11 112 .986   1982 1 1 Bobby Grich 500 131 28 5 19 76 64 82 3 108 8 6 3 3 3 14 .262 .373 .452 .825 84   15.5 5.8 21.3 .109 .041 .150 24.96 1982 1 1 Bobby Grich
1982 18 Rob Wilfong CAL 1W L 28   28 35 72 2 13 .982   1982 18 Rob Wilfong 62 18 2 2 0 9 7 4 1 8 0 1 0 3 0 1 .290 .333 .387 .720 6   0.7 0.8 1.5 .025 .029 .054 1.05 1982 18 Rob Wilfong
     
1983 2 2 Bobby Grich CAL T5W R 34   118 270 415 22 94 .969   1983 2 2 Bobby Grich 382 110 15 0 16 64 60 76 2 61 7 4 3 2 4 10 .288 .412 .453 .865 74   15.4 4.2 19.6 .131 .036 .166 23.41 1983 2 2 Bobby Grich
1983 20 Rob Wilfong CAL T5W L 29   39 92 110 1 26 .995   1983 20 Rob Wilfong 129 31 6 1 1 12 13 5 1 18 0 1 1 0 1 1 .240 .267 .326 .593 11   1.0 1.2 2.2 .026 .031 .056 1.53 1983 20 Rob Wilfong
     
1984 11 10 Rob Wilfong CAL T2W L 30   97 161 266 11 48 .975   1984 11 10 Rob Wilfong 282 71 11 2 6 28 31 18 0 49 2 6 2 3 2 2 .252 .299 .369 .668 34   4.6 3.5 8.1 .047 .036 .084 7.11 1984 11 10 Rob Wilfong
1984 10 Bobby Grich CAL T2W R 35 1B,3B   91 182 249 8 65 .982   1984 10 Bobby Grich 273 68 9 0 12 46 40 43 3 49 1 4 2 2 5 7 .249 .351 .414 .765 41   7.7 3.3 11.0 .085 .036 .121 11.61 1984 10 Bobby Grich
     
1985 4 4 Bobby Grich CAL 2W R 36   116 224 380 2 99 .997   1985 4 4 Bobby Grich 368 92 10 1 11 62 44 69 3 66 3 7 0 1 5 13 .250 .373 .372 .745 53   8.5 6.7 15.2 .073 .058 .131 17.12 1985 4 4 Bobby Grich
1985 16 Rob Wilfong CAL 2W L 31   69 124 216 5 45 .986   1985 16 Rob Wilfong 203 39 3 0 4 15 12 14 1 32 0 7 2 3 1 0 .192 .242 .266 .508 14   - 4.0 4.0 .000 .058 .058 3.00 1985 16 Rob Wilfong
     
1986 18 14 Rob Wilfong CAL 1W L 32   90 135 257 7 48 .982   1986 18 14 Rob Wilfong 280 61 10 3 3 24 33 16 2 32 2 8 2 1 4 4 .218 .263 .307 .570 23   0.3 3.4 3.7 .003 .038 .041 2.30 1986 18 14 Rob Wilfong
1986 8 Bobby Grich CAL 1W R 37   87 127 221 7 49 .980   1986 8 Bobby Grich 263 68 15 0 7 37 22 36 1 50 3 9 1 1 2 8 .259 .353 .395 .748 39   6.8 3.0 9.8 .078 .034 .113 10.10 1986 8 Bobby Grich
     
1987 11 10 Mark McLemore R CAL T6W B 22   132 291 358 17 96 .974   1987 11 10 Mark McLemore 405 95 12 3 3 57 38 45 0 67 0 14 3 23 7 7 .235 .309 .301 .610 46   3.5 4.2 7.7 .027 .032 .058 6.04 1987 11 10 Mark McLemore
1987 14 Johnny Ray CAL T6W B 30 NL-2B   29 52 90 2 19 .986   1987 14 Johnny Ray 123 42 11 0 0 15 15 3 0 10 0 1 1 0 0 4 .341 .354 .431 .785 18   2.2 1.1 3.3 .076 .038 .114 3.62 1987 14 Johnny Ray
     
1988 4 4 Johnny Ray a CAL 4W B 31 LF   104 194 328 15 64 .972   1988 4 4 Johnny Ray 415 123 24 6 4 52 50 24 2 22 3 9 5 3 1 7 .296 .336 .412 .748 60   12.1 2.5 14.6 .116 .024 .140 17.55 1988 4 4 Johnny Ray
1988 16 Mark McLemore CAL 4W B 23   63 107 171 6 52 .979   1988 16 Mark McLemore 207 52 10 2 2 32 14 22 0 25 0 5 2 11 7 5 .251 .320 .348 .668 23   2.4 1.5 3.9 .038 .024 .062 3.12 1988 16 Mark McLemore
     
1989 5 5 Johnny Ray CAL 3W B 32   130 279 403 11 98 .984   1989 5 5 Johnny Ray 526 151 16 3 5 52 60 36 3 30 0 4 12 6 3 14 .287 .326 .357 .683 63   10.6 6.5 17.1 .082 .050 .132 17.97 1989 5 5 Johnny Ray
1989 23 Mark McLemore CAL 3W B 24   27 55 88 5 24 .966   1989 23 Mark McLemore 101 25 3 1 0 12 14 6 0 18 1 3 1 6 1 2 .248 .294 .297 .591 10   1.4 1.4 2.8 .052 .052 .104 2.61 1989 23 Mark McLemore
     
1990 11 10 Johnny Ray CAL 4W B 33   100 241 295 7 82 .987   1990 11 10 Johnny Ray 395 111 23 0 5 47 43 17 2 43 0 3 3 2 3 10 .281 .308 .377 .685 43   5.9 4.1 10.0 .059 .041 .100 9.53 1990 11 10 Johnny Ray
1990 17 Donnie Hill CAL 4W B 29 3B,SS   60 128 173 3 48 .990   1990 17 Donnie Hill 211 56 14 1 1 23 14 14 0 16 1 4 2 1 1 6 .265 .311 .355 .666 24   3.2 1.8 5.0 .053 .030 .083 4.35 1990 17 Donnie Hill
     
1991 15 12 Luis Sojo R CAL 7W R 25   107 228 326 11 78 .981   1991 15 12 Luis Sojo 352 92 13 1 3 38 19 14 0 25 5 18 0 4 2 11 .261 .299 .330 .629 28   0.9 4.2 5.1 .008 .039 .048 3.12 1991 15 12 Luis Sojo
1991 17 Donnie Hill CAL 7W B 30 SS   39 75 91 5 23 .971   1991 17 Donnie Hill 109 25 3 1 0 17 6 18 1 10 0 1 0 1 0 0 .229 .339 .275 .614 12   2.1 1.1 3.2 .054 .028 .082 2.57 1991 17 Donnie Hill
     
1992 11 9 Luis Sojo CAL T5W R 26   96 187 267 7 72 .985   1992 11 9 Luis Sojo 335 89 12 2 7 33 40 11 0 24 1 6 0 5 9 12 .266 .291 .376 .667 32   4.6 3.9 8.5 .048 .041 .089 7.22 1992 11 9 Luis Sojo
1992 16 Rene Gonzales CAL T5W R 31 3B   42 78 92 1 28 .994   1992 16 Rene Gonzales 129 33 5 1 4 18 17 12 1 18 0 0 0 1 2 10 .256 .319 .403 .722 13   2.6 1.6 4.2 .062 .038 .100 3.79 1992 16 Rene Gonzales
1992 25 Bobby Rose R CAL T5W R 25   28 48 94 7 19 .953   1992 25 Bobby Rose 81 17 5 0 1 10 8 6 1 9 2 0 1 1 1 2 .210 .278 .309 .587 6   0.8 1.3 2.1 .029 .046 .075 1.64 1992 25 Bobby Rose
1992 28 Ken Oberkfell CAL T5W L 36   21 34 34 1 4 .986   1992 28 Ken Oberkfell 59 18 0 0 0 4 6 4 0 3 0 0 0 0 1 1 .305 .349 .305 .654 6   0.7 0.5 1.2 .033 .024 .057 0.81 1992 28 Ken Oberkfell
     
1993 17 13 Torey Lovullo CAL T5W B 27   91 184 220 8 67 .981   1993 17 13 Torey Lovullo 299 72 18 0 3 29 23 28 1 36 1 3 2 6 6 6 .241 .306 .331 .637 31   2.7 2.5 5.2 .030 .027 .057 3.54 1993 17 13 Torey Lovullo
1993 14 Damion Easley CAL T5W R 23   54 101 125 5 26 .978   1993 14 Damion Easley 180 55 9 2 2 28 18 19 1 29 2 0 1 6 5 5 .306 .376 .411 .787 26   4.1 1.6 5.7 .076 .030 .106 5.27 1993 14 Damion Easley
     
Pos St All- Other 2nd Base Fielding Statistics Pos St Batting Statistics as Second Baseman Win Shares Pos St
Year Rank Rank Name HOF MVP Star Rookie GG SS Team Stdg Bats Age Pos Games PO Assts Err DP F Pct. Year Rank Rank Name At Bats Hits 2B 3B HR Runs RBI BB IBB SO HP SH SF SB CS GDP BA OBA SA OPS RC B WS F WS T WS BWS/G FWS/G TWS/G Adj WSQ Year Rank Rank Name
1994 25 14 Harold Reynolds CAL 4W B 33   65 116 130 1 26 .996   1994 25 14 Harold Reynolds 195 43 10 1 0 27 11 20 0 17 1 3 1 10 7 5 .221 .295 .282 .577 16   - 1.7 1.7 .000 .026 .026 0.85 1994 25 14 Harold Reynolds
1994 24 Damion Easley CAL 4W R 24 3B   40 83 95 1 32 .994   1994 24 Damion Easley 141 27 9 1 2 15 12 12 0 26 1 1 1 2 1 2 .191 .258 .312 .570 12   0.4 1.2 1.6 .010 .030 .040 0.99 1994 24 Damion Easley
1994 13 Rex Hudler CAL 4W R 33   22 45 56 3 19 .971   1994 13 Rex Hudler 66 24 6 0 4 10 8 4 0 12 0 1 1 1 1 2 .364 .394 .636 1.030 16   2.4 0.6 3.0 .109 .027 .136 3.43 1994 13 Rex Hudler
     
1995 21 14 Damion Easley CAL 2W R 25 SS   88 145 209 7 41 .981   1995 21 14 Damion Easley 281 62 12 1 4 29 31 30 1 37 6 6 4 2 0 11 .221 .305 .313 .618 27   - 2.6 2.6 .000 .030 .030 1.37 1995 21 14 Damion Easley
1995 14 Rex Hudler CAL 2W R 34   52 93 115 3 32 .986   1995 14 Rex Hudler 143 42 10 0 5 18 22 4 1 33 4 2 1 9 0 1 .294 .329 .469 .798 23   3.4 1.5 4.9 .065 .029 .094 4.61 1995 14 Rex Hudler
     
1996 5 5 Randy Velarde CAL 4W R 33 3B   114 236 252 9 80 .982   1996 5 5 Randy Velarde 439 127 24 3 12 74 45 62 0 101 4 2 2 6 5 6 .289 .381 .440 .821 76   12.1 2.3 14.4 .106 .020 .126 14.69 1996 5 5 Randy Velarde
1996 13 Rex Hudler CAL 4W R 35   53 97 116 4 35 .982   1996 13 Rex Hudler 183 54 8 1 13 33 25 3 0 30 3 2 1 6 3 6 .295 .316 .563 .879 28   4.6 1.0 5.6 .087 .019 .106 5.22 1996 13 Rex Hudler
     
1997 6 6 Luis Alicea ANA 2W B 31   105 218 268 11 58 .978   1997 6 6 Luis Alicea 345 90 14 7 5 54 32 60 3 56 7 4 0 19 6 3 .261 .381 .386 .767 56   8.9 2.9 11.8 .085 .028 .112 11.87 1997 6 6 Luis Alicea
1997 9 Tony Phillips ANA 2W B 38 LF,RF,DH   43 78 101 6 21 .968   1997 9 Tony Phillips 168 48 14 1 2 26 22 28 3 45 1 1 1 1 4 2 .286 .389 .417 .806 28   6.5 1.3 7.8 .151 .030 .181 9.97 1997 9 Tony Phillips
1997 26 Craig Grebeck ANA 2W R 32 SS   26 45 55 0 17 1.000   1997 26 Craig Grebeck 71 18 8 0 0 4 4 7 0 6 0 4 1 0 1 3 .254 .316 .366 .682 9   0.9 0.5 1.4 .035 .019 .054 0.97 1997 26 Craig Grebeck
     
1998 20 14 Justin Baughman R ANA 2W R 23   59 104 153 6 22 .977   1998 20 14 Justin Baughman 191 47 8 1 1 23 20 6 0 35 1 4 3 10 3 4 .246 .269 .314 .583 17   0.5 2.6 3.1 .008 .044 .053 2.08 1998 20 14 Justin Baughman
1998 13 Randy Velarde ANA 2W R 35   51 88 132 4 25 .982   1998 13 Randy Velarde 187 48 13 1 4 29 25 34 0 42 1 0 1 7 2 8 .257 .372 .401 .773 28   5.7 1.0 6.7 .112 .020 .131 7.09 1998 13 Randy Velarde
1998 22 Norberto Martin ANA 2W R 31   54 86 138 4 31 .982   1998 22 Norberto Martin 162 35 2 0 1 15 11 6 0 27 0 3 2 3 1 8 .216 .241 .247 .488 9   - 2.4 2.4 .000 .044 .044 1.48 1998 22 Norberto Martin
     
1999 3 5 Randy Velarde ANA 4W R 36   95 191 307 7 61 .986   1999 3 5 Randy Velarde 376 115 15 4 9 57 48 43 1 56 4 2 0 13 4 8 .306 .383 .439 .822 65   10.9 1.6 12.5 .115 .017 .132 13.00 1999 3 5 Randy Velarde
1999 23 Trent Durrington R ANA 4W R 23   41 73 98 6 19 .966   1999 23 Trent Durrington 119 21 2 0 0 14 2 9 0 27 0 5 0 4 3 1 .176 .234 .193 .427 5   - 1.2 1.2 .000 .029 .029 0.59 1999 23 Trent Durrington
1999 25 Jeff Huson ANA 4W L 34 SS   41 53 92 1 20 .993   1999 25 Jeff Huson 98 26 2 0 0 6 5 10 0 5 0 1 1 6 1 5 .265 .330 .286 .616 10   0.1 1.0 1.1 .002 .024 .027 0.52 1999 25 Jeff Huson
     
2000 8 8 Adam Kennedy R-T6 ANA 3W L 24   155 336 424 19 106 .976   2000 8 8 Adam Kennedy 591 158 32 11 9 81 72 28 5 73 3 8 4 22 8 10 .267 .302 .404 .706 72   6.6 4.8 11.4 .043 .031 .074 9.86 2000 8 8 Adam Kennedy
     
2001 12 11 Adam Kennedy ANA 3W L 25   131 236 376 10 64 .984   2001 12 11 Adam Kennedy 458 125 24 3 6 48 38 26 3 64 11 6 8 12 7 6 .273 .322 .378 .700 55   3.2 4.8 8.0 .024 .037 .061 5.52 2001 12 11 Adam Kennedy
2001 24 Benji Gil ANA 3W R 28 SS   21 30 53 3 14 .965   2001 24 Benji Gil 55 12 3 0 2 8 8 3 0 16 0 0 0 0 0 2 .218 .259 .382 .641 5   0.5 0.5 1.0 .024 .024 .048 0.61 2001 24 Benji Gil
     
2002 4 3 Adam Kennedy ANA 2W L 26   139 273 367 11 90 .983   2002 4 3 Adam Kennedy 458 143 32 6 7 65 51 18 1 76 7 5 4 14 3 4 .312 .345 .454 .799 72   11.0 6.3 17.3 .079 .045 .124 18.30 2002 4 3 Adam Kennedy
2002 18 Benji Gil ANA 2W R 29   26 41 58 1 11 .990   2002 18 Benji Gil 66 20 6 0 1 4 8 4 0 14 0 1 1 1 1 0 .303 .338 .439 .777 11   1.9 1.0 2.9 .073 .038 .112 2.90 2002 18 Benji Gil
     
2003 8 8 Adam Kennedy ANA 3W L 27   140 235 371 6 78 .990   2003 8 8 Adam Kennedy 441 119 16 1 12 69 46 44 4 71 8 2 5 22 8 6 .270 .343 .392 .735 60   7.8 5.3 13.1 .056 .038 .094 11.84 2003 8 8 Adam Kennedy
2003 T24 Benji Gil ANA 3W R 30 SS   28 32 62 2 14 .979   2003 T24 Benji Gil 58 10 3 1 0 4 5 2 0 17 0 2 2 1 0 3 .172 .194 .259 .453 3   - 0.9 0.9 .000 .032 .032 0.48 2003 T24 Benji Gil
     
2004 8 7 Adam Kennedy ANA 1W L 28   144 255 388 12 71 .982   2004 8 7 Adam Kennedy 467 129 20 5 10 69 48 41 7 92 13 9 2 15 5 10 .276 .350 .405 .755 64   7.1 5.5 12.6 .049 .038 .088 11.87 2004 8 7 Adam Kennedy
2004 22 Chone Figgins T24 ANA 1W B 26 3B,CF   20 27 42 1 8 .986   2004 22 Chone Figgins 68 17 2 2 1 8 9 4 0 14 0 0 0 3 1 0 .250 .292 .382 .674 8   1.4 0.6 2.0 .070 .030 .100 2.02 2004 22 Chone Figgins
     
2005 5 5 Adam Kennedy LA 1W L 29   127 212 352 5 71 .991   2005 5 5 Adam Kennedy 414 124 23 0 2 49 37 29 1 64 7 5 3 18 3 5 .300 .353 .370 .723 53   9.9 6.4 16.3 .078 .050 .128 16.89 2005 5 5 Adam Kennedy
2005 12 Chone Figgins 17 LA 1W B 27 3B,CF   42 67 101 5 20 .971   2005 12 Chone Figgins 139 38 7 2 2 22 16 10 0 28 0 0 4 11 1 3 .273 .314 .396 .710 19   3.1 1.8 4.9 .074 .043 .117 4.85 2005 12 Chone Figgins
     
2006 4 4 Adam Kennedy LA 2W L 30   133 205 361 9 76 .984   2006 4 4 Adam Kennedy 442 122 26 6 4 50 54 36 3 70 5 3 5 15 10 15 .276 .334 .389 .723 54   8.4 6.8 15.2 .063 .051 .114 15.70 2006 4 4 Adam Kennedy
2006 16 Howie Kendrick R LA 2W R 22 1B   28 48 67 0 24 1.000   2006 16 Howie Kendrick 99 30 10 1 2 9 16 2 0 15 1 0 1 2 0 0 .303 .320 .485 .805 16   2.1 1.5 3.6 .075 .054 .129 3.94 2006 16 Howie Kendrick
     
2007 12 11 Howie Kendrick LA 1W R 23   86 146 254 9 54 .978   2007 12 11 Howie Kendrick 333 107 24 2 5 52 39 8 2 61 4 1 1 4 4 15 .321 .344 .450 .794 44   5.2 3.5 8.7 .060 .041 .101 7.96 2007 12 11 Howie Kendrick
2007 23 Erick Aybar R LA 1W B 23 SS   43 60 106 4 25 .976   2007 23 Erick Aybar 136 37 3 1 0 15 13 6 0 19 0 3 0 4 2 7 .272 .303 .309 .612 12   - 1.4 1.4 .000 .033 .033 0.73 2007 23 Erick Aybar
2007 9 Maicer Izturis LA 1W B 26 3B   40 50 91 0 24 1.000   2007 9 Maicer Izturis 130 43 11 1 5 21 26 9 1 13 0 0 1 0 0 1 .331 .371 .546 .917 27   6.9 1.3 8.2 .173 .033 .205 10.68 2007 9 Maicer Izturis
     
Pos St All- Other 2nd Base Fielding Statistics Pos St Batting Statistics as Second Baseman Win Shares Pos St
Year Rank Rank Name HOF MVP Star Rookie GG SS Team Stdg Bats Age Pos Games PO Assts Err DP F Pct. Year Rank Rank Name At Bats Hits 2B 3B HR Runs RBI BB IBB SO HP SH SF SB CS GDP BA OBA SA OPS RC B WS F WS T WS BWS/G FWS/G TWS/G Adj WSQ Year Rank Rank Name
2008 6 6 Howie Kendrick LA 1W R 24   92 155 287 4 67 .991   2008 6 6 Howie Kendrick 340 104 26 2 3 44 37 12 3 58 4 1 4 11 4 8 .306 .333 .421 .754 45   9.3 5.7 15.0 .101 .062 .163 17.03 2008 6 6 Howie Kendrick
2008 26 Sean Rodriguez R LA 1W R 23   51 97 127 2 36 .991   2008 26 Sean Rodriguez 158 34 8 1 3 17 10 13 0 51 3 0 1 2 1 3 .215 .286 .335 .621 14   - 2.7 2.7 .000 .053 .053 1.75 2008 26 Sean Rodriguez
2008 20 Maicer Izturis LA 1W B 27 SS   23 49 61 2 15 .982   2008 20 Maicer Izturis 74 17 4 0 0 13 8 10 0 3 0 0 1 5 0 4 .230 .318 .284 .602 7   1.2 1.4 2.6 .052 .061 .113 2.45 2008 20 Maicer Izturis
     
2009 7 7 Howie Kendrick LA 1W R 25   95 156 271 4 70 .991   2009 7 7 Howie Kendrick 345 100 20 3 9 55 57 18 1 67 4 2 0 10 4 7 .290 .332 .443 .775 50   9.4 5.4 14.8 .099 .057 .156 16.31 2009 7 7 Howie Kendrick
2009 10 Maicer Izturis LA 1W B 28 SS   68 114 180 2 49 .993   2009 10 Maicer Izturis 252 73 17 3 5 44 43 21 0 26 2 0 4 8 2 6 .290 .344 .440 .784 39   7.3 3.6 10.9 .107 .053 .160 12.18 2009 10 Maicer Izturis
     
2010 3 3 Howie Kendrick LA 3W R 26   143 259 366 9 74 .986   2010 3 3 Howie Kendrick 564 156 38 4 8 59 70 27 1 83 5 4 5 13 4 14 .277 .313 .401 .714 69   12.5 6.5 19.0 .087 .045 .133 20.27 2010 3 3 Howie Kendrick
2010 20 Maicer Izturis LA 3W B 29 3B   22 30 52 1 6 .988   2010 20 Maicer Izturis 76 21 2 1 0 8 5 8 0 9 1 0 0 5 2 0 .276 .353 .329 .682 10   2.0 0.9 2.9 .091 .041 .132 3.08 2010 20 Maicer Izturis
Copyright 2009-11 by Andre Lower
Sources:
All-Time Major League Handbook
Win Shares Digital Update
baseball-reference.com
ESPN Baseball Encyclopedia